sensor_id;sensor_type;location;lat;lon;timestamp;temperature;humidity
11501;DHT22;5807;51.606;7.624;2023-06-04T00:02:20;21.10;1.00
11501;DHT22;5807;51.606;7.624;2023-06-04T00:04:47;21.00;1.00
11501;DHT22;5807;51.606;7.624;2023-06-04T00:07:14;21.10;1.00
11501;DHT22;5807;51.606;7.624;2023-06-04T00:09:41;21.10;1.00
11501;DHT22;5807;51.606;7.624;2023-06-04T00:12:09;21.10;1.00
11501;DHT22;5807;51.606;7.624;2023-06-04T00:14:36;21.10;1.00
11501;DHT22;5807;51.606;7.624;2023-06-04T00:17:03;21.10;1.00
11501;DHT22;5807;51.606;7.624;2023-06-04T00:19:30;21.00;1.00
11501;DHT22;5807;51.606;7.624;2023-06-04T00:21:56;21.10;1.00
11501;DHT22;5807;51.606;7.624;2023-06-04T00:24:23;21.10;1.00
11501;DHT22;5807;51.606;7.624;2023-06-04T00:26:50;21.10;1.00
11501;DHT22;5807;51.606;7.624;2023-06-04T00:29:18;21.00;1.00
11501;DHT22;5807;51.606;7.624;2023-06-04T00:31:45;21.10;1.00
11501;DHT22;5807;51.606;7.624;2023-06-04T00:34:11;21.00;1.00
11501;DHT22;5807;51.606;7.624;2023-06-04T00:36:39;21.00;1.00
11501;DHT22;5807;51.606;7.624;2023-06-04T00:39:06;21.00;1.00
11501;DHT22;5807;51.606;7.624;2023-06-04T00:41:33;21.00;1.00
11501;DHT22;5807;51.606;7.624;2023-06-04T00:44:00;21.00;1.00
11501;DHT22;5807;51.606;7.624;2023-06-04T00:46:34;21.00;1.00
11501;DHT22;5807;51.606;7.624;2023-06-04T00:49:05;21.00;1.00
11501;DHT22;5807;51.606;7.624;2023-06-04T00:51:32;21.00;1.00
11501;DHT22;5807;51.606;7.624;2023-06-04T00:53:59;21.00;1.00
11501;DHT22;5807;51.606;7.624;2023-06-04T00:56:34;21.00;1.00
11501;DHT22;5807;51.606;7.624;2023-06-04T00:59:00;21.00;1.00
11501;DHT22;5807;51.606;7.624;2023-06-04T01:01:35;21.00;1.00
11501;DHT22;5807;51.606;7.624;2023-06-04T01:04:13;21.00;1.00
11501;DHT22;5807;51.606;7.624;2023-06-04T01:06:44;21.00;1.00
11501;DHT22;5807;51.606;7.624;2023-06-04T01:09:13;21.00;1.00
11501;DHT22;5807;51.606;7.624;2023-06-04T01:11:40;21.00;1.00
11501;DHT22;5807;51.606;7.624;2023-06-04T01:14:08;21.00;1.00
11501;DHT22;5807;51.606;7.624;2023-06-04T01:16:45;21.00;1.00
11501;DHT22;5807;51.606;7.624;2023-06-04T01:19:27;21.00;1.00
11501;DHT22;5807;51.606;7.624;2023-06-04T01:22:02;21.00;1.00
11501;DHT22;5807;51.606;7.624;2023-06-04T01:24:34;21.00;1.00
11501;DHT22;5807;51.606;7.624;2023-06-04T01:27:03;21.00;1.00
11501;DHT22;5807;51.606;7.624;2023-06-04T01:29:30;21.00;1.00
11501;DHT22;5807;51.606;7.624;2023-06-04T01:31:59;21.00;1.00
11501;DHT22;5807;51.606;7.624;2023-06-04T01:34:26;21.00;1.00
11501;DHT22;5807;51.606;7.624;2023-06-04T01:36:52;20.90;1.00
11501;DHT22;5807;51.606;7.624;2023-06-04T01:39:19;21.00;1.00
11501;DHT22;5807;51.606;7.624;2023-06-04T01:41:46;20.90;1.00
11501;DHT22;5807;51.606;7.624;2023-06-04T01:44:13;20.90;1.00
11501;DHT22;5807;51.606;7.624;2023-06-04T01:46:40;20.90;1.00
11501;DHT22;5807;51.606;7.624;2023-06-04T01:49:09;20.90;1.00
11501;DHT22;5807;51.606;7.624;2023-06-04T01:51:36;20.90;1.00
11501;DHT22;5807;51.606;7.624;2023-06-04T01:54:03;20.90;1.00
11501;DHT22;5807;51.606;7.624;2023-06-04T01:56:29;20.90;1.00
11501;DHT22;5807;51.606;7.624;2023-06-04T01:58:56;20.90;1.00
11501;DHT22;5807;51.606;7.624;2023-06-04T02:01:23;20.90;1.00
11501;DHT22;5807;51.606;7.624;2023-06-04T02:03:49;20.90;1.00
11501;DHT22;5807;51.606;7.624;2023-06-04T02:06:17;20.90;1.00
11501;DHT22;5807;51.606;7.624;2023-06-04T02:08:45;20.90;1.00
11501;DHT22;5807;51.606;7.624;2023-06-04T02:11:11;20.90;1.00
11501;DHT22;5807;51.606;7.624;2023-06-04T02:13:38;20.90;1.00
11501;DHT22;5807;51.606;7.624;2023-06-04T02:16:05;20.90;1.00
11501;DHT22;5807;51.606;7.624;2023-06-04T02:18:32;20.80;1.00
11501;DHT22;5807;51.606;7.624;2023-06-04T02:20:59;20.90;1.00
11501;DHT22;5807;51.606;7.624;2023-06-04T02:23:27;20.90;1.00
11501;DHT22;5807;51.606;7.624;2023-06-04T02:25:54;20.80;1.00
11501;DHT22;5807;51.606;7.624;2023-06-04T02:28:20;20.80;1.00
11501;DHT22;5807;51.606;7.624;2023-06-04T02:30:47;20.90;1.00
11501;DHT22;5807;51.606;7.624;2023-06-04T02:33:14;20.90;1.00
11501;DHT22;5807;51.606;7.624;2023-06-04T02:35:41;20.90;1.00
11501;DHT22;5807;51.606;7.624;2023-06-04T02:38:08;20.90;1.00
11501;DHT22;5807;51.606;7.624;2023-06-04T02:40:36;20.90;1.00
11501;DHT22;5807;51.606;7.624;2023-06-04T02:43:03;20.90;1.00
11501;DHT22;5807;51.606;7.624;2023-06-04T02:45:30;20.90;1.00
11501;DHT22;5807;51.606;7.624;2023-06-04T02:47:57;20.80;1.00
11501;DHT22;5807;51.606;7.624;2023-06-04T02:50:23;20.80;1.00
11501;DHT22;5807;51.606;7.624;2023-06-04T02:52:50;20.80;1.00
11501;DHT22;5807;51.606;7.624;2023-06-04T02:55:17;20.80;1.00
11501;DHT22;5807;51.606;7.624;2023-06-04T02:57:45;20.80;1.00
11501;DHT22;5807;51.606;7.624;2023-06-04T03:00:13;20.80;1.00
11501;DHT22;5807;51.606;7.624;2023-06-04T03:02:42;20.80;1.00
11501;DHT22;5807;51.606;7.624;2023-06-04T03:05:10;20.80;1.00
11501;DHT22;5807;51.606;7.624;2023-06-04T03:07:38;20.80;1.00
11501;DHT22;5807;51.606;7.624;2023-06-04T03:10:07;20.80;1.00
11501;DHT22;5807;51.606;7.624;2023-06-04T03:12:34;20.80;1.00
11501;DHT22;5807;51.606;7.624;2023-06-04T03:15:02;20.80;1.00
11501;DHT22;5807;51.606;7.624;2023-06-04T03:17:30;20.70;1.00
11501;DHT22;5807;51.606;7.624;2023-06-04T03:19:57;20.80;1.00
11501;DHT22;5807;51.606;7.624;2023-06-04T03:22:24;20.80;1.00
11501;DHT22;5807;51.606;7.624;2023-06-04T03:24:51;20.80;1.00
11501;DHT22;5807;51.606;7.624;2023-06-04T03:27:18;20.70;1.00
11501;DHT22;5807;51.606;7.624;2023-06-04T03:29:45;20.80;1.00
11501;DHT22;5807;51.606;7.624;2023-06-04T03:32:13;20.80;1.00
11501;DHT22;5807;51.606;7.624;2023-06-04T03:34:41;20.70;1.00
11501;DHT22;5807;51.606;7.624;2023-06-04T03:37:08;20.80;1.00
11501;DHT22;5807;51.606;7.624;2023-06-04T03:39:35;20.70;1.00
11501;DHT22;5807;51.606;7.624;2023-06-04T03:42:02;20.80;1.00
11501;DHT22;5807;51.606;7.624;2023-06-04T03:44:29;20.70;1.00
11501;DHT22;5807;51.606;7.624;2023-06-04T03:46:55;20.70;1.00
11501;DHT22;5807;51.606;7.624;2023-06-04T03:49:24;20.70;1.00
11501;DHT22;5807;51.606;7.624;2023-06-04T03:51:50;20.70;1.00
11501;DHT22;5807;51.606;7.624;2023-06-04T03:54:17;20.70;1.00
11501;DHT22;5807;51.606;7.624;2023-06-04T03:56:44;20.70;1.00
11501;DHT22;5807;51.606;7.624;2023-06-04T03:59:11;20.70;1.00
11501;DHT22;5807;51.606;7.624;2023-06-04T04:01:38;20.70;1.00
11501;DHT22;5807;51.606;7.624;2023-06-04T04:04:05;20.70;1.00
11501;DHT22;5807;51.606;7.624;2023-06-04T04:06:34;20.70;1.00
11501;DHT22;5807;51.606;7.624;2023-06-04T04:09:01;20.70;1.00
11501;DHT22;5807;51.606;7.624;2023-06-04T04:11:28;20.70;1.00
11501;DHT22;5807;51.606;7.624;2023-06-04T04:13:56;20.70;1.00
11501;DHT22;5807;51.606;7.624;2023-06-04T04:16:23;20.70;1.00
11501;DHT22;5807;51.606;7.624;2023-06-04T04:18:50;20.70;1.00
11501;DHT22;5807;51.606;7.624;2023-06-04T04:21:17;20.70;1.00
11501;DHT22;5807;51.606;7.624;2023-06-04T04:23:45;20.70;1.00
11501;DHT22;5807;51.606;7.624;2023-06-04T04:26:12;20.70;1.00
11501;DHT22;5807;51.606;7.624;2023-06-04T04:28:42;20.70;1.00
11501;DHT22;5807;51.606;7.624;2023-06-04T04:31:09;20.70;1.00
11501;DHT22;5807;51.606;7.624;2023-06-04T04:33:36;20.70;1.00
11501;DHT22;5807;51.606;7.624;2023-06-04T04:36:05;20.70;1.00
11501;DHT22;5807;51.606;7.624;2023-06-04T04:38:34;20.70;1.00
11501;DHT22;5807;51.606;7.624;2023-06-04T04:41:02;20.70;1.00
11501;DHT22;5807;51.606;7.624;2023-06-04T04:43:30;20.60;1.00
11501;DHT22;5807;51.606;7.624;2023-06-04T04:45:57;20.70;1.00
11501;DHT22;5807;51.606;7.624;2023-06-04T04:48:24;20.70;1.00
11501;DHT22;5807;51.606;7.624;2023-06-04T04:50:51;20.70;1.00
11501;DHT22;5807;51.606;7.624;2023-06-04T04:53:18;20.70;1.00
11501;DHT22;5807;51.606;7.624;2023-06-04T04:55:44;20.70;1.00
11501;DHT22;5807;51.606;7.624;2023-06-04T04:58:13;20.70;1.00
11501;DHT22;5807;51.606;7.624;2023-06-04T05:00:40;20.70;1.00
11501;DHT22;5807;51.606;7.624;2023-06-04T05:03:07;20.70;1.00
11501;DHT22;5807;51.606;7.624;2023-06-04T05:05:34;20.70;1.00
11501;DHT22;5807;51.606;7.624;2023-06-04T05:08:01;20.70;1.00
11501;DHT22;5807;51.606;7.624;2023-06-04T05:10:27;20.70;1.00
11501;DHT22;5807;51.606;7.624;2023-06-04T05:12:56;20.70;1.00
11501;DHT22;5807;51.606;7.624;2023-06-04T05:15:25;20.70;1.00
11501;DHT22;5807;51.606;7.624;2023-06-04T05:17:52;20.70;1.00
11501;DHT22;5807;51.606;7.624;2023-06-04T05:20:20;20.70;1.00
11501;DHT22;5807;51.606;7.624;2023-06-04T05:22:48;20.70;1.00
11501;DHT22;5807;51.606;7.624;2023-06-04T05:25:15;20.70;1.00
11501;DHT22;5807;51.606;7.624;2023-06-04T05:27:43;20.70;1.00
11501;DHT22;5807;51.606;7.624;2023-06-04T05:30:10;20.70;1.00
11501;DHT22;5807;51.606;7.624;2023-06-04T05:32:39;20.70;1.00
11501;DHT22;5807;51.606;7.624;2023-06-04T05:35:08;20.70;1.00
11501;DHT22;5807;51.606;7.624;2023-06-04T05:37:35;20.70;1.00
11501;DHT22;5807;51.606;7.624;2023-06-04T05:40:04;20.70;1.00
11501;DHT22;5807;51.606;7.624;2023-06-04T05:42:32;20.70;1.00
11501;DHT22;5807;51.606;7.624;2023-06-04T05:44:59;20.70;1.00
11501;DHT22;5807;51.606;7.624;2023-06-04T05:47:27;20.70;1.00
11501;DHT22;5807;51.606;7.624;2023-06-04T05:49:55;20.70;1.00
11501;DHT22;5807;51.606;7.624;2023-06-04T05:52:22;20.70;1.00
11501;DHT22;5807;51.606;7.624;2023-06-04T05:54:49;20.70;1.00
11501;DHT22;5807;51.606;7.624;2023-06-04T05:57:16;20.80;1.00
11501;DHT22;5807;51.606;7.624;2023-06-04T05:59:42;20.80;1.00
11501;DHT22;5807;51.606;7.624;2023-06-04T06:02:09;20.70;1.00
11501;DHT22;5807;51.606;7.624;2023-06-04T06:04:36;20.80;1.00
11501;DHT22;5807;51.606;7.624;2023-06-04T06:07:04;20.70;1.00
11501;DHT22;5807;51.606;7.624;2023-06-04T06:09:31;20.80;1.00
11501;DHT22;5807;51.606;7.624;2023-06-04T06:11:58;20.80;1.00
11501;DHT22;5807;51.606;7.624;2023-06-04T06:14:25;20.80;1.00
11501;DHT22;5807;51.606;7.624;2023-06-04T06:16:51;20.80;1.00
11501;DHT22;5807;51.606;7.624;2023-06-04T06:19:19;20.80;1.00
11501;DHT22;5807;51.606;7.624;2023-06-04T06:21:46;20.70;1.00
11501;DHT22;5807;51.606;7.624;2023-06-04T06:24:14;20.70;1.00
11501;DHT22;5807;51.606;7.624;2023-06-04T06:26:40;20.70;1.00
11501;DHT22;5807;51.606;7.624;2023-06-04T06:29:08;20.70;1.00
11501;DHT22;5807;51.606;7.624;2023-06-04T06:31:34;20.70;1.00
11501;DHT22;5807;51.606;7.624;2023-06-04T06:34:01;20.70;1.00
11501;DHT22;5807;51.606;7.624;2023-06-04T06:36:29;20.70;1.00
11501;DHT22;5807;51.606;7.624;2023-06-04T06:38:56;20.60;1.00
11501;DHT22;5807;51.606;7.624;2023-06-04T06:41:24;20.70;1.00
11501;DHT22;5807;51.606;7.624;2023-06-04T06:43:51;20.60;1.00
11501;DHT22;5807;51.606;7.624;2023-06-04T06:46:18;20.70;1.00
11501;DHT22;5807;51.606;7.624;2023-06-04T06:48:45;20.60;1.00
11501;DHT22;5807;51.606;7.624;2023-06-04T06:51:13;20.70;1.00
11501;DHT22;5807;51.606;7.624;2023-06-04T06:53:40;20.70;1.00
11501;DHT22;5807;51.606;7.624;2023-06-04T06:56:08;20.40;1.00
11501;DHT22;5807;51.606;7.624;2023-06-04T06:58:36;20.00;1.00
11501;DHT22;5807;51.606;7.624;2023-06-04T07:01:02;19.90;1.00
11501;DHT22;5807;51.606;7.624;2023-06-04T07:03:29;19.90;1.00
11501;DHT22;5807;51.606;7.624;2023-06-04T07:05:56;19.90;1.00
11501;DHT22;5807;51.606;7.624;2023-06-04T07:08:23;19.80;1.00
11501;DHT22;5807;51.606;7.624;2023-06-04T07:10:50;19.70;1.00
11501;DHT22;5807;51.606;7.624;2023-06-04T07:13:16;19.80;1.00
11501;DHT22;5807;51.606;7.624;2023-06-04T07:15:45;19.80;1.00
11501;DHT22;5807;51.606;7.624;2023-06-04T07:18:11;19.80;1.00
11501;DHT22;5807;51.606;7.624;2023-06-04T07:20:38;19.80;1.00
11501;DHT22;5807;51.606;7.624;2023-06-04T07:23:05;19.80;1.00
11501;DHT22;5807;51.606;7.624;2023-06-04T07:25:33;19.90;1.00
11501;DHT22;5807;51.606;7.624;2023-06-04T07:27:59;20.00;1.00
11501;DHT22;5807;51.606;7.624;2023-06-04T07:30:29;20.00;1.00
11501;DHT22;5807;51.606;7.624;2023-06-04T07:32:58;20.00;1.00
11501;DHT22;5807;51.606;7.624;2023-06-04T07:35:25;20.10;1.00
11501;DHT22;5807;51.606;7.624;2023-06-04T07:37:52;20.00;1.00
11501;DHT22;5807;51.606;7.624;2023-06-04T07:40:19;20.00;1.00
11501;DHT22;5807;51.606;7.624;2023-06-04T07:42:46;20.10;1.00
11501;DHT22;5807;51.606;7.624;2023-06-04T07:45:13;20.10;1.00
11501;DHT22;5807;51.606;7.624;2023-06-04T07:47:40;20.10;1.00
11501;DHT22;5807;51.606;7.624;2023-06-04T07:50:09;20.10;1.00
11501;DHT22;5807;51.606;7.624;2023-06-04T07:52:35;20.20;1.00
11501;DHT22;5807;51.606;7.624;2023-06-04T07:55:03;20.30;1.00
11501;DHT22;5807;51.606;7.624;2023-06-04T07:57:30;20.30;1.00
11501;DHT22;5807;51.606;7.624;2023-06-04T07:59:57;20.30;1.00
11501;DHT22;5807;51.606;7.624;2023-06-04T08:02:24;20.30;1.00
11501;DHT22;5807;51.606;7.624;2023-06-04T08:04:51;20.40;1.00
11501;DHT22;5807;51.606;7.624;2023-06-04T08:07:20;20.50;1.00
11501;DHT22;5807;51.606;7.624;2023-06-04T08:09:46;20.40;1.00
11501;DHT22;5807;51.606;7.624;2023-06-04T08:12:13;20.40;1.00
11501;DHT22;5807;51.606;7.624;2023-06-04T08:14:41;20.50;1.00
11501;DHT22;5807;51.606;7.624;2023-06-04T08:17:08;20.50;1.00
11501;DHT22;5807;51.606;7.624;2023-06-04T08:19:35;20.50;1.00
11501;DHT22;5807;51.606;7.624;2023-06-04T08:22:02;20.40;1.00
11501;DHT22;5807;51.606;7.624;2023-06-04T08:24:30;20.40;1.00
11501;DHT22;5807;51.606;7.624;2023-06-04T08:26:57;20.50;1.00
11501;DHT22;5807;51.606;7.624;2023-06-04T08:29:24;20.50;1.00
11501;DHT22;5807;51.606;7.624;2023-06-04T08:31:51;20.50;1.00
11501;DHT22;5807;51.606;7.624;2023-06-04T08:34:18;20.50;1.00
11501;DHT22;5807;51.606;7.624;2023-06-04T08:36:45;20.50;1.00
11501;DHT22;5807;51.606;7.624;2023-06-04T08:39:13;20.50;1.00
11501;DHT22;5807;51.606;7.624;2023-06-04T08:41:44;20.50;1.00
11501;DHT22;5807;51.606;7.624;2023-06-04T08:44:11;20.50;1.00
11501;DHT22;5807;51.606;7.624;2023-06-04T08:46:39;20.60;1.00
11501;DHT22;5807;51.606;7.624;2023-06-04T08:49:07;20.60;1.00
11501;DHT22;5807;51.606;7.624;2023-06-04T08:51:36;20.60;1.00
11501;DHT22;5807;51.606;7.624;2023-06-04T08:54:04;20.60;1.00
11501;DHT22;5807;51.606;7.624;2023-06-04T08:56:31;20.60;1.00
11501;DHT22;5807;51.606;7.624;2023-06-04T08:59:02;20.60;1.00
11501;DHT22;5807;51.606;7.624;2023-06-04T09:01:29;20.60;1.00
11501;DHT22;5807;51.606;7.624;2023-06-04T09:03:58;20.60;1.00
11501;DHT22;5807;51.606;7.624;2023-06-04T09:06:26;20.60;1.00
11501;DHT22;5807;51.606;7.624;2023-06-04T09:08:55;20.60;1.00
11501;DHT22;5807;51.606;7.624;2023-06-04T09:11:23;20.60;1.00
11501;DHT22;5807;51.606;7.624;2023-06-04T09:13:53;20.60;1.00
11501;DHT22;5807;51.606;7.624;2023-06-04T09:16:21;20.60;1.00
11501;DHT22;5807;51.606;7.624;2023-06-04T09:18:48;20.70;1.00
11501;DHT22;5807;51.606;7.624;2023-06-04T09:21:15;20.60;1.00
11501;DHT22;5807;51.606;7.624;2023-06-04T09:23:44;20.60;1.00
11501;DHT22;5807;51.606;7.624;2023-06-04T09:26:11;20.60;1.00
11501;DHT22;5807;51.606;7.624;2023-06-04T09:28:40;20.60;1.00
11501;DHT22;5807;51.606;7.624;2023-06-04T09:31:08;20.60;1.00
11501;DHT22;5807;51.606;7.624;2023-06-04T09:33:43;20.60;1.00
11501;DHT22;5807;51.606;7.624;2023-06-04T09:36:10;20.60;1.00
11501;DHT22;5807;51.606;7.624;2023-06-04T09:38:38;20.60;1.00
11501;DHT22;5807;51.606;7.624;2023-06-04T09:41:10;20.70;1.00
11501;DHT22;5807;51.606;7.624;2023-06-04T09:43:37;20.70;1.00
11501;DHT22;5807;51.606;7.624;2023-06-04T09:46:11;20.70;1.00
11501;DHT22;5807;51.606;7.624;2023-06-04T09:48:39;20.70;1.00
11501;DHT22;5807;51.606;7.624;2023-06-04T09:51:08;20.70;1.00
11501;DHT22;5807;51.606;7.624;2023-06-04T09:53:36;20.70;1.00
11501;DHT22;5807;51.606;7.624;2023-06-04T09:56:03;20.70;1.00
11501;DHT22;5807;51.606;7.624;2023-06-04T09:58:31;20.60;1.00
11501;DHT22;5807;51.606;7.624;2023-06-04T10:00:59;20.70;1.00
11501;DHT22;5807;51.606;7.624;2023-06-04T10:03:30;20.70;1.00
11501;DHT22;5807;51.606;7.624;2023-06-04T10:05:59;20.70;1.00
11501;DHT22;5807;51.606;7.624;2023-06-04T10:08:29;20.70;1.00
11501;DHT22;5807;51.606;7.624;2023-06-04T10:10:58;20.70;1.00
11501;DHT22;5807;51.606;7.624;2023-06-04T10:13:27;20.70;1.00
11501;DHT22;5807;51.606;7.624;2023-06-04T10:15:57;20.70;1.00
11501;DHT22;5807;51.606;7.624;2023-06-04T10:18:27;20.70;1.00
11501;DHT22;5807;51.606;7.624;2023-06-04T10:20:55;20.80;1.00
11501;DHT22;5807;51.606;7.624;2023-06-04T10:23:22;20.80;1.00
11501;DHT22;5807;51.606;7.624;2023-06-04T10:25:51;20.80;1.00
11501;DHT22;5807;51.606;7.624;2023-06-04T10:28:20;20.80;1.00
11501;DHT22;5807;51.606;7.624;2023-06-04T10:30:47;20.80;1.00
11501;DHT22;5807;51.606;7.624;2023-06-04T10:33:17;20.80;1.00
11501;DHT22;5807;51.606;7.624;2023-06-04T10:35:45;20.80;1.00
11501;DHT22;5807;51.606;7.624;2023-06-04T10:38:13;20.90;1.00
11501;DHT22;5807;51.606;7.624;2023-06-04T10:40:42;20.90;1.00
11501;DHT22;5807;51.606;7.624;2023-06-04T10:43:12;20.90;1.00
11501;DHT22;5807;51.606;7.624;2023-06-04T10:45:39;20.90;1.00
11501;DHT22;5807;51.606;7.624;2023-06-04T10:48:08;20.90;1.00
11501;DHT22;5807;51.606;7.624;2023-06-04T10:50:47;20.90;1.00
11501;DHT22;5807;51.606;7.624;2023-06-04T10:53:15;21.00;1.00
11501;DHT22;5807;51.606;7.624;2023-06-04T10:55:44;21.00;1.00
11501;DHT22;5807;51.606;7.624;2023-06-04T10:58:12;21.00;1.00
11501;DHT22;5807;51.606;7.624;2023-06-04T11:00:40;21.10;1.00
11501;DHT22;5807;51.606;7.624;2023-06-04T11:03:09;21.00;1.00
11501;DHT22;5807;51.606;7.624;2023-06-04T11:05:37;21.10;1.00
11501;DHT22;5807;51.606;7.624;2023-06-04T11:08:05;21.10;1.00
11501;DHT22;5807;51.606;7.624;2023-06-04T11:10:33;21.10;1.00
11501;DHT22;5807;51.606;7.624;2023-06-04T11:13:01;21.00;1.00
11501;DHT22;5807;51.606;7.624;2023-06-04T11:15:39;21.10;1.00
11501;DHT22;5807;51.606;7.624;2023-06-04T11:18:06;21.10;1.00
11501;DHT22;5807;51.606;7.624;2023-06-04T11:20:32;21.10;1.00
11501;DHT22;5807;51.606;7.624;2023-06-04T11:23:00;21.10;1.00
11501;DHT22;5807;51.606;7.624;2023-06-04T11:25:29;21.10;1.00
11501;DHT22;5807;51.606;7.624;2023-06-04T11:27:56;21.10;1.00
11501;DHT22;5807;51.606;7.624;2023-06-04T11:30:24;21.10;1.00
11501;DHT22;5807;51.606;7.624;2023-06-04T11:32:59;21.10;1.00
11501;DHT22;5807;51.606;7.624;2023-06-04T11:35:26;21.20;1.00
11501;DHT22;5807;51.606;7.624;2023-06-04T11:37:53;21.10;1.00
11501;DHT22;5807;51.606;7.624;2023-06-04T11:40:21;21.10;1.00
11501;DHT22;5807;51.606;7.624;2023-06-04T11:42:49;21.10;1.00
11501;DHT22;5807;51.606;7.624;2023-06-04T11:45:17;21.20;1.00
11501;DHT22;5807;51.606;7.624;2023-06-04T11:47:45;21.10;1.00
11501;DHT22;5807;51.606;7.624;2023-06-04T11:50:14;21.10;1.00
11501;DHT22;5807;51.606;7.624;2023-06-04T11:52:42;21.10;1.00
11501;DHT22;5807;51.606;7.624;2023-06-04T11:55:09;21.20;1.00
11501;DHT22;5807;51.606;7.624;2023-06-04T11:57:37;21.10;1.00
11501;DHT22;5807;51.606;7.624;2023-06-04T12:00:04;21.10;1.00
11501;DHT22;5807;51.606;7.624;2023-06-04T12:02:34;21.10;1.00
11501;DHT22;5807;51.606;7.624;2023-06-04T12:05:11;21.20;1.00
11501;DHT22;5807;51.606;7.624;2023-06-04T12:07:39;21.10;1.00
11501;DHT22;5807;51.606;7.624;2023-06-04T12:10:06;21.20;1.00
11501;DHT22;5807;51.606;7.624;2023-06-04T12:12:33;21.20;1.00
11501;DHT22;5807;51.606;7.624;2023-06-04T12:15:00;21.20;1.00
11501;DHT22;5807;51.606;7.624;2023-06-04T12:17:27;21.20;1.00
11501;DHT22;5807;51.606;7.624;2023-06-04T12:19:54;21.20;1.00
11501;DHT22;5807;51.606;7.624;2023-06-04T12:22:22;21.20;1.00
11501;DHT22;5807;51.606;7.624;2023-06-04T12:24:51;21.10;1.00
11501;DHT22;5807;51.606;7.624;2023-06-04T12:27:20;21.10;1.00
11501;DHT22;5807;51.606;7.624;2023-06-04T12:29:55;21.20;1.00
11501;DHT22;5807;51.606;7.624;2023-06-04T12:32:22;21.20;1.00
11501;DHT22;5807;51.606;7.624;2023-06-04T12:34:49;21.30;1.00
11501;DHT22;5807;51.606;7.624;2023-06-04T12:37:15;21.30;1.00
11501;DHT22;5807;51.606;7.624;2023-06-04T12:39:42;21.30;1.00
11501;DHT22;5807;51.606;7.624;2023-06-04T12:42:10;21.30;1.00
11501;DHT22;5807;51.606;7.624;2023-06-04T12:44:38;21.30;1.00
11501;DHT22;5807;51.606;7.624;2023-06-04T12:47:05;21.30;1.00
11501;DHT22;5807;51.606;7.624;2023-06-04T12:49:32;21.20;1.00
11501;DHT22;5807;51.606;7.624;2023-06-04T12:51:59;21.30;1.00
11501;DHT22;5807;51.606;7.624;2023-06-04T12:54:26;21.30;1.00
11501;DHT22;5807;51.606;7.624;2023-06-04T12:56:53;21.30;1.00
11501;DHT22;5807;51.606;7.624;2023-06-04T12:59:23;21.30;1.00
11501;DHT22;5807;51.606;7.624;2023-06-04T13:01:50;21.30;1.00
11501;DHT22;5807;51.606;7.624;2023-06-04T13:04:17;21.30;1.00
11501;DHT22;5807;51.606;7.624;2023-06-04T13:06:44;21.30;1.00
11501;DHT22;5807;51.606;7.624;2023-06-04T13:09:13;21.30;1.00
11501;DHT22;5807;51.606;7.624;2023-06-04T13:11:41;21.40;1.00
11501;DHT22;5807;51.606;7.624;2023-06-04T13:14:09;21.40;1.00
11501;DHT22;5807;51.606;7.624;2023-06-04T13:16:38;21.30;1.00
11501;DHT22;5807;51.606;7.624;2023-06-04T13:19:05;21.40;1.00
11501;DHT22;5807;51.606;7.624;2023-06-04T13:21:32;21.40;1.00
11501;DHT22;5807;51.606;7.624;2023-06-04T13:23:59;21.40;1.00
11501;DHT22;5807;51.606;7.624;2023-06-04T13:26:26;21.30;1.00
11501;DHT22;5807;51.606;7.624;2023-06-04T13:28:53;21.30;1.00
11501;DHT22;5807;51.606;7.624;2023-06-04T13:31:19;21.40;1.00
11501;DHT22;5807;51.606;7.624;2023-06-04T13:33:47;21.40;1.00
11501;DHT22;5807;51.606;7.624;2023-06-04T13:36:14;21.40;1.00
11501;DHT22;5807;51.606;7.624;2023-06-04T13:38:41;21.50;1.00
11501;DHT22;5807;51.606;7.624;2023-06-04T13:41:08;21.40;1.00
11501;DHT22;5807;51.606;7.624;2023-06-04T13:43:35;21.40;1.00
11501;DHT22;5807;51.606;7.624;2023-06-04T13:46:02;21.40;1.00
11501;DHT22;5807;51.606;7.624;2023-06-04T13:48:28;21.30;1.00
11501;DHT22;5807;51.606;7.624;2023-06-04T13:50:57;21.40;1.00
11501;DHT22;5807;51.606;7.624;2023-06-04T13:53:23;21.40;1.00
11501;DHT22;5807;51.606;7.624;2023-06-04T13:55:50;21.40;1.00
11501;DHT22;5807;51.606;7.624;2023-06-04T13:58:23;21.40;1.00
11501;DHT22;5807;51.606;7.624;2023-06-04T14:00:50;21.40;1.00
11501;DHT22;5807;51.606;7.624;2023-06-04T14:03:16;21.50;1.00
11501;DHT22;5807;51.606;7.624;2023-06-04T14:05:43;21.40;1.00
11501;DHT22;5807;51.606;7.624;2023-06-04T14:08:11;21.40;1.00
11501;DHT22;5807;51.606;7.624;2023-06-04T14:10:38;21.50;1.00
11501;DHT22;5807;51.606;7.624;2023-06-04T14:13:06;21.50;1.00
11501;DHT22;5807;51.606;7.624;2023-06-04T14:15:33;21.50;1.00
11501;DHT22;5807;51.606;7.624;2023-06-04T14:18:00;21.50;1.00
11501;DHT22;5807;51.606;7.624;2023-06-04T14:20:27;21.40;1.00
11501;DHT22;5807;51.606;7.624;2023-06-04T14:22:54;21.40;1.00
11501;DHT22;5807;51.606;7.624;2023-06-04T14:25:22;21.40;1.00
11501;DHT22;5807;51.606;7.624;2023-06-04T14:27:49;21.50;1.00
11501;DHT22;5807;51.606;7.624;2023-06-04T14:30:16;21.50;1.00
11501;DHT22;5807;51.606;7.624;2023-06-04T14:32:43;21.60;1.00
11501;DHT22;5807;51.606;7.624;2023-06-04T14:35:10;21.60;1.00
11501;DHT22;5807;51.606;7.624;2023-06-04T14:37:39;21.70;1.00
11501;DHT22;5807;51.606;7.624;2023-06-04T14:40:07;21.70;1.00
11501;DHT22;5807;51.606;7.624;2023-06-04T14:42:35;21.70;1.00
11501;DHT22;5807;51.606;7.624;2023-06-04T14:45:02;21.70;1.00
11501;DHT22;5807;51.606;7.624;2023-06-04T14:47:29;21.70;1.00
11501;DHT22;5807;51.606;7.624;2023-06-04T14:49:56;21.70;1.00
11501;DHT22;5807;51.606;7.624;2023-06-04T14:52:23;21.70;1.00
11501;DHT22;5807;51.606;7.624;2023-06-04T14:54:50;21.70;1.00
11501;DHT22;5807;51.606;7.624;2023-06-04T14:57:16;21.70;1.00
11501;DHT22;5807;51.606;7.624;2023-06-04T14:59:48;21.70;1.00
11501;DHT22;5807;51.606;7.624;2023-06-04T15:02:15;21.70;1.00
11501;DHT22;5807;51.606;7.624;2023-06-04T15:04:45;21.70;1.00
11501;DHT22;5807;51.606;7.624;2023-06-04T15:07:11;21.60;1.00
11501;DHT22;5807;51.606;7.624;2023-06-04T15:09:38;21.60;1.00
11501;DHT22;5807;51.606;7.624;2023-06-04T15:12:05;21.70;1.00
11501;DHT22;5807;51.606;7.624;2023-06-04T15:14:32;21.60;1.00
11501;DHT22;5807;51.606;7.624;2023-06-04T15:17:00;21.60;1.00
11501;DHT22;5807;51.606;7.624;2023-06-04T15:19:27;21.60;1.00
11501;DHT22;5807;51.606;7.624;2023-06-04T15:21:53;21.60;1.00
11501;DHT22;5807;51.606;7.624;2023-06-04T15:24:20;21.60;1.00
11501;DHT22;5807;51.606;7.624;2023-06-04T15:26:47;21.60;1.00
11501;DHT22;5807;51.606;7.624;2023-06-04T15:29:14;21.60;1.00
11501;DHT22;5807;51.606;7.624;2023-06-04T15:31:41;21.60;1.00
11501;DHT22;5807;51.606;7.624;2023-06-04T15:34:09;21.60;1.00
11501;DHT22;5807;51.606;7.624;2023-06-04T15:36:36;21.60;1.00
11501;DHT22;5807;51.606;7.624;2023-06-04T15:39:03;21.50;1.00
11501;DHT22;5807;51.606;7.624;2023-06-04T15:41:30;21.50;1.00
11501;DHT22;5807;51.606;7.624;2023-06-04T15:43:57;21.50;1.00
11501;DHT22;5807;51.606;7.624;2023-06-04T15:46:24;21.50;1.00
11501;DHT22;5807;51.606;7.624;2023-06-04T15:48:51;21.50;1.00
11501;DHT22;5807;51.606;7.624;2023-06-04T15:51:19;21.50;1.00
11501;DHT22;5807;51.606;7.624;2023-06-04T15:53:46;21.50;1.00
11501;DHT22;5807;51.606;7.624;2023-06-04T15:56:13;21.50;1.00
11501;DHT22;5807;51.606;7.624;2023-06-04T15:58:41;21.50;1.00
11501;DHT22;5807;51.606;7.624;2023-06-04T16:01:08;21.60;1.00
11501;DHT22;5807;51.606;7.624;2023-06-04T16:03:35;21.60;1.00
11501;DHT22;5807;51.606;7.624;2023-06-04T16:06:02;21.50;1.00